createdAt,value
2018-03-25T00:01:07.749Z,16.40
2018-03-25T00:03:33.960Z,17.23
2018-03-25T00:06:00.115Z,17.57
2018-03-25T00:08:26.164Z,18.00
2018-03-25T00:10:52.215Z,17.37
2018-03-25T00:13:18.312Z,18.57
2018-03-25T00:15:44.474Z,18.40
2018-03-25T00:18:10.557Z,17.43
2018-03-25T00:20:36.669Z,18.97
2018-03-25T00:23:02.719Z,19.00
2018-03-25T00:25:28.758Z,18.47
2018-03-25T00:27:54.857Z,19.20
2018-03-25T00:30:20.934Z,18.03
2018-03-25T00:32:47.232Z,18.73
2018-03-25T00:35:13.269Z,18.70
2018-03-25T00:37:39.449Z,17.37
2018-03-25T00:40:05.553Z,18.03
2018-03-25T00:42:31.603Z,18.53
2018-03-25T00:44:57.772Z,18.13
2018-03-25T00:47:23.818Z,18.13
2018-03-25T00:49:49.924Z,18.83
2018-03-25T00:52:16.141Z,19.60
2018-03-25T00:54:42.199Z,19.07
2018-03-25T00:57:08.280Z,18.37
2018-03-25T00:59:34.314Z,18.33
2018-03-25T01:02:00.403Z,19.10
2018-03-25T01:04:26.463Z,17.67
2018-03-25T01:06:52.638Z,19.73
2018-03-25T01:09:18.717Z,19.17
2018-03-25T01:11:45.181Z,19.00
2018-03-25T01:14:11.381Z,20.30
2018-03-25T01:16:37.434Z,17.93
2018-03-25T01:19:03.478Z,19.70
2018-03-25T01:21:29.527Z,21.10
2018-03-25T01:23:55.623Z,21.00
2018-03-25T01:26:21.769Z,21.43
2018-03-25T01:28:47.854Z,21.40
2018-03-25T01:31:13.940Z,20.40
2018-03-25T01:33:39.983Z,20.10
2018-03-25T01:36:06.034Z,21.17
2018-03-25T01:38:32.105Z,22.30
2018-03-25T01:40:58.280Z,21.60
2018-03-25T01:43:24.517Z,21.87
2018-03-25T01:45:50.579Z,19.20
2018-03-25T01:48:16.869Z,19.30
2018-03-25T01:50:42.920Z,21.23
2018-03-25T01:53:09.009Z,20.10
2018-03-25T01:55:35.055Z,18.73
2018-03-25T01:58:01.102Z,18.37
2018-03-25T02:00:27.327Z,19.27
2018-03-25T02:02:53.369Z,19.87
2018-03-25T02:05:19.614Z,20.47
2018-03-25T02:07:45.993Z,21.17
2018-03-25T02:10:12.029Z,20.27
2018-03-25T02:12:38.094Z,20.70
2018-03-25T02:15:04.344Z,20.30
2018-03-25T02:17:30.385Z,19.87
2018-03-25T02:19:56.507Z,18.37
2018-03-25T02:22:22.517Z,19.63
2018-03-25T02:24:48.576Z,18.70
2018-03-25T02:27:14.879Z,19.27
2018-03-25T02:29:41.006Z,19.87
2018-03-25T02:32:07.076Z,20.30
2018-03-25T02:34:33.110Z,18.40
2018-03-25T02:36:59.153Z,19.40
2018-03-25T02:39:25.209Z,19.43
2018-03-25T02:41:51.421Z,19.43
2018-03-25T02:44:17.457Z,20.10
2018-03-25T02:46:43.622Z,20.90
2018-03-25T02:49:09.744Z,18.60
2018-03-25T02:51:35.790Z,20.67
2018-03-25T02:54:02.073Z,21.53
2018-03-25T02:56:28.118Z,21.23
2018-03-25T02:58:54.179Z,20.73
2018-03-25T03:01:20.252Z,19.80
2018-03-25T03:03:46.400Z,20.60
2018-03-25T03:06:12.411Z,20.73
2018-03-25T03:08:38.447Z,21.07
2018-03-25T03:11:04.540Z,20.57
2018-03-25T03:13:30.617Z,20.17
2018-03-25T03:15:56.693Z,21.23
2018-03-25T03:18:22.746Z,19.37
2018-03-25T03:20:48.758Z,21.47
2018-03-25T03:23:14.857Z,19.10
2018-03-25T03:25:40.916Z,21.13
2018-03-25T03:28:06.954Z,22.50
2018-03-25T03:30:33.100Z,20.17
2018-03-25T03:32:59.158Z,20.30
2018-03-25T03:35:25.188Z,19.50
2018-03-25T03:37:51.378Z,20.87
2018-03-25T03:40:17.404Z,19.30
2018-03-25T03:42:43.647Z,21.17
2018-03-25T03:45:09.715Z,22.73
2018-03-25T03:47:35.734Z,24.30
2018-03-25T03:50:01.821Z,18.87
2018-03-25T03:52:27.901Z,22.10
2018-03-25T03:54:54.102Z,24.90
2018-03-25T03:57:20.152Z,19.87
2018-03-25T03:59:46.204Z,19.57
2018-03-25T04:02:12.272Z,20.20
2018-03-25T04:04:38.340Z,19.60
2018-03-25T04:07:04.403Z,22.07
2018-03-25T04:09:30.432Z,16.00
2018-03-25T04:11:56.470Z,19.13
2018-03-25T04:14:22.561Z,21.63
2018-03-25T04:16:48.652Z,26.27
2018-03-25T04:19:14.697Z,24.00
2018-03-25T04:21:40.759Z,22.37
2018-03-25T04:24:06.843Z,24.90
2018-03-25T04:26:32.884Z,23.43
2018-03-25T04:28:58.962Z,25.30
2018-03-25T04:31:25.015Z,25.60
2018-03-25T04:33:51.051Z,25.97
2018-03-25T04:36:17.128Z,24.67
2018-03-25T04:38:43.170Z,25.03
2018-03-25T04:41:09.420Z,28.87
2018-03-25T04:43:35.492Z,26.40
2018-03-25T04:46:01.539Z,28.47
2018-03-25T04:48:27.602Z,27.03
2018-03-25T04:50:53.695Z,26.40
2018-03-25T04:53:19.757Z,27.57
2018-03-25T04:55:45.789Z,26.53
2018-03-25T04:58:12.187Z,21.13
2018-03-25T05:00:38.224Z,30.00
2018-03-25T05:03:04.318Z,29.77
2018-03-25T05:05:30.337Z,30.13
2018-03-25T05:07:56.424Z,28.03
2018-03-25T05:10:22.562Z,26.23
2018-03-25T05:12:48.670Z,29.47
2018-03-25T05:15:14.768Z,26.43
2018-03-25T05:17:40.876Z,26.53
2018-03-25T05:20:06.955Z,29.17
2018-03-25T05:22:32.982Z,28.77
2018-03-25T05:24:59.066Z,28.93
2018-03-25T05:27:25.143Z,26.90
2018-03-25T05:29:51.183Z,27.33
2018-03-25T05:32:17.231Z,26.67
2018-03-25T05:34:43.272Z,28.03
2018-03-25T05:37:09.347Z,28.43
2018-03-25T05:39:35.485Z,27.63
2018-03-25T05:42:01.570Z,27.57
2018-03-25T05:44:27.600Z,28.27
2018-03-25T05:46:53.657Z,28.13
2018-03-25T05:49:19.704Z,27.63
2018-03-25T05:51:45.897Z,26.50
2018-03-25T05:54:12.024Z,28.17
2018-03-25T05:56:38.068Z,27.80
2018-03-25T05:59:04.116Z,25.93
2018-03-25T06:01:30.172Z,28.77
2018-03-25T06:03:56.549Z,26.47
2018-03-25T06:06:22.640Z,25.17
2018-03-25T06:08:48.748Z,28.90
2018-03-25T06:11:14.771Z,27.87
2018-03-25T06:13:40.880Z,26.10
2018-03-25T06:16:06.918Z,28.50
2018-03-25T06:18:32.958Z,23.90
2018-03-25T06:20:59.110Z,28.33
2018-03-25T06:23:25.223Z,31.00
2018-03-25T06:25:51.971Z,30.57
2018-03-25T06:28:18.035Z,29.67
2018-03-25T06:30:44.079Z,29.83
2018-03-25T06:33:10.322Z,26.00
2018-03-25T06:35:36.380Z,30.27
2018-03-25T06:38:02.445Z,29.47
2018-03-25T06:40:28.609Z,25.33
2018-03-25T06:42:54.649Z,31.13
2018-03-25T06:45:20.867Z,27.10
2018-03-25T06:47:46.923Z,30.70
2018-03-25T06:50:13.348Z,31.57
2018-03-25T06:52:39.425Z,29.50
2018-03-25T06:55:05.461Z,28.50
2018-03-25T06:57:31.522Z,27.73
2018-03-25T06:59:57.554Z,29.10
2018-03-25T07:02:23.656Z,29.87
2018-03-25T07:04:49.712Z,22.80
2018-03-25T07:07:15.819Z,27.80
2018-03-25T07:09:41.885Z,29.90
2018-03-25T07:12:08.453Z,30.70
2018-03-25T07:14:34.532Z,28.47
2018-03-25T07:17:00.764Z,27.43
2018-03-25T07:19:26.840Z,27.70
2018-03-25T07:21:52.873Z,28.97
2018-03-25T07:24:18.966Z,32.03
2018-03-25T07:26:45.032Z,26.63
2018-03-25T07:29:11.334Z,27.47
2018-03-25T07:31:37.382Z,25.43
2018-03-25T07:34:03.397Z,29.80
2018-03-25T07:36:29.492Z,31.80
2018-03-25T07:38:55.579Z,29.77
2018-03-25T07:41:21.647Z,30.47
2018-03-25T07:43:47.736Z,31.47
2018-03-25T07:46:13.851Z,32.73
2018-03-25T07:48:39.896Z,34.37
2018-03-25T07:51:05.973Z,31.43
2018-03-25T07:53:32.223Z,31.27
2018-03-25T07:55:58.291Z,29.10
2018-03-25T07:58:24.427Z,30.90
2018-03-25T08:00:50.519Z,32.70
2018-03-25T08:03:16.559Z,31.33
2018-03-25T08:05:42.599Z,32.77
2018-03-25T08:08:08.680Z,33.53
2018-03-25T08:10:34.904Z,30.57
2018-03-25T08:13:00.973Z,29.80
2018-03-25T08:15:27.167Z,31.67
2018-03-25T08:17:53.200Z,31.27
2018-03-25T08:20:19.386Z,32.50
2018-03-25T08:22:45.412Z,28.77
2018-03-25T08:25:11.466Z,29.33
2018-03-25T08:27:37.611Z,24.50
2018-03-25T08:30:03.723Z,28.47
2018-03-25T08:32:29.792Z,28.07
2018-03-25T08:34:55.886Z,29.67
2018-03-25T08:37:21.993Z,26.77
2018-03-25T08:39:48.079Z,27.17
2018-03-25T08:42:14.174Z,29.10
2018-03-25T08:44:40.275Z,27.07
2018-03-25T08:47:06.290Z,26.93
2018-03-25T08:49:32.353Z,27.60
2018-03-25T08:51:58.491Z,24.70
2018-03-25T08:54:24.513Z,25.43
2018-03-25T08:56:50.699Z,25.73
2018-03-25T08:59:16.749Z,24.53
2018-03-25T09:01:42.830Z,22.63
2018-03-25T09:04:08.867Z,23.37
2018-03-25T09:06:34.953Z,24.23
2018-03-25T09:09:01.269Z,20.47
2018-03-25T09:11:27.318Z,22.13
2018-03-25T09:13:53.388Z,20.70
2018-03-25T09:16:19.558Z,23.67
2018-03-25T09:18:45.809Z,16.37
2018-03-25T09:21:11.845Z,16.40
2018-03-25T09:23:37.937Z,19.60
2018-03-25T09:26:04.141Z,18.53
2018-03-25T09:28:30.321Z,20.63
2018-03-25T09:30:56.396Z,20.17
2018-03-25T09:36:18.207Z,19.47
2018-03-25T09:38:44.235Z,22.23
2018-03-25T09:41:10.415Z,20.90
2018-03-25T09:43:36.487Z,19.43
2018-03-25T09:46:02.644Z,18.73
2018-03-25T09:48:28.744Z,18.40
2018-03-25T09:50:54.768Z,16.87
2018-03-25T09:53:20.850Z,17.27
2018-03-25T09:55:47.035Z,16.93
2018-03-25T09:58:13.095Z,19.17
2018-03-25T10:00:39.236Z,17.90
2018-03-25T10:03:11.476Z,20.17
2018-03-25T10:05:37.558Z,20.03
2018-03-25T10:08:03.675Z,19.80
2018-03-25T10:10:29.880Z,20.03
2018-03-25T10:12:55.945Z,17.83
2018-03-25T10:15:22.040Z,23.50
2018-03-25T10:17:48.123Z,19.83
2018-03-25T10:20:14.297Z,20.67
2018-03-25T10:22:40.384Z,18.43
2018-03-25T10:25:06.414Z,18.30
2018-03-25T10:27:32.476Z,17.47
2018-03-25T10:29:58.552Z,18.73
2018-03-25T10:32:24.679Z,18.43
2018-03-25T10:34:50.768Z,18.83
2018-03-25T10:37:16.824Z,17.17
2018-03-25T10:39:42.872Z,22.33
2018-03-25T10:42:09.010Z,21.37
2018-03-25T10:44:35.034Z,20.23
2018-03-25T10:47:01.112Z,20.47
2018-03-25T10:49:27.351Z,20.77
2018-03-25T10:51:53.631Z,19.50
2018-03-25T10:54:19.869Z,24.43
2018-03-25T10:56:46.051Z,19.97
2018-03-25T10:59:12.215Z,23.10
2018-03-25T11:01:38.676Z,19.87
2018-03-25T11:04:04.862Z,20.50
2018-03-25T11:06:31.088Z,20.73
2018-03-25T11:08:57.259Z,19.43
2018-03-25T11:11:23.549Z,19.27
2018-03-25T11:13:49.704Z,20.67
2018-03-25T11:16:15.954Z,24.03
2018-03-25T11:18:42.099Z,19.40
2018-03-25T11:21:08.151Z,20.83
2018-03-25T11:23:34.239Z,21.10
2018-03-25T11:26:00.320Z,22.40
2018-03-25T11:28:26.404Z,17.70
2018-03-25T11:30:52.677Z,22.63
2018-03-25T11:33:18.713Z,20.50
2018-03-25T11:35:45.112Z,19.87
2018-03-25T11:38:11.148Z,14.20
2018-03-25T11:40:37.469Z,15.83
2018-03-25T11:43:03.715Z,15.83
2018-03-25T11:45:29.906Z,13.43
2018-03-25T11:47:56.055Z,15.67
2018-03-25T11:50:22.153Z,15.50
2018-03-25T11:52:48.338Z,15.67
2018-03-25T11:55:14.528Z,18.13
2018-03-25T11:57:40.607Z,18.23
2018-03-25T12:00:06.792Z,14.27
2018-03-25T12:02:32.856Z,13.07
2018-03-25T12:04:58.891Z,16.57
2018-03-25T12:07:24.958Z,13.43
2018-03-25T12:09:50.990Z,13.43
2018-03-25T12:12:17.111Z,12.30
2018-03-25T12:14:43.290Z,14.73
2018-03-25T12:17:09.440Z,17.33
2018-03-25T12:19:35.593Z,15.37
2018-03-25T12:22:01.702Z,16.77
2018-03-25T12:24:27.973Z,15.33
2018-03-25T12:26:54.221Z,14.10
2018-03-25T12:29:20.274Z,15.37
2018-03-25T12:31:46.351Z,15.40
2018-03-25T12:34:12.401Z,13.97
2018-03-25T12:36:38.430Z,13.93
2018-03-25T12:39:04.535Z,16.00
2018-03-25T12:41:30.690Z,16.40
2018-03-25T12:43:56.745Z,14.10
2018-03-25T12:46:22.905Z,12.13
2018-03-25T12:48:48.934Z,11.37
2018-03-25T12:51:15.094Z,14.47
2018-03-25T12:53:41.202Z,14.13
2018-03-25T12:56:07.280Z,13.30
2018-03-25T12:58:33.404Z,13.93
2018-03-25T13:01:00.235Z,14.10
2018-03-25T13:03:26.333Z,13.37
2018-03-25T13:05:52.407Z,13.57
2018-03-25T13:08:18.456Z,14.13
2018-03-25T13:10:44.497Z,13.90
2018-03-25T13:13:10.554Z,14.73
2018-03-25T13:15:51.659Z,13.80
2018-03-25T13:18:17.761Z,12.43
2018-03-25T13:20:44.578Z,11.80
2018-03-25T13:23:10.710Z,11.70
2018-03-25T13:25:37.607Z,13.20
2018-03-25T13:28:04.271Z,12.70
2018-03-25T13:30:30.636Z,13.97
2018-03-25T13:32:56.853Z,14.80
2018-03-25T13:35:22.986Z,14.03
2018-03-25T13:37:49.042Z,12.43
2018-03-25T13:40:15.166Z,13.90
2018-03-25T13:42:41.294Z,16.03
2018-03-25T13:45:07.361Z,16.70
2018-03-25T13:47:33.470Z,13.67
2018-03-25T13:49:59.503Z,11.97
2018-03-25T13:52:25.733Z,12.60
2018-03-25T13:54:51.792Z,23.40
2018-03-25T13:57:17.916Z,15.73
2018-03-25T13:59:44.014Z,13.93
2018-03-25T14:02:10.308Z,13.30
2018-03-25T14:04:36.397Z,14.37
2018-03-25T14:07:02.684Z,12.57
2018-03-25T14:09:28.761Z,9.43
2018-03-25T14:11:54.798Z,11.43
2018-03-25T14:14:20.855Z,14.30
2018-03-25T14:16:46.990Z,13.10
2018-03-25T14:19:13.219Z,15.83
2018-03-25T14:21:39.270Z,13.97
2018-03-25T14:24:05.295Z,13.97
2018-03-25T14:26:31.744Z,15.67
2018-03-25T14:28:57.774Z,15.47
2018-03-25T14:31:23.932Z,12.37
2018-03-25T14:33:50.039Z,13.13
2018-03-25T14:36:16.466Z,13.13
2018-03-25T14:38:42.502Z,15.53
2018-03-25T14:41:08.659Z,15.83
2018-03-25T14:43:34.742Z,16.40
2018-03-25T14:46:00.863Z,17.73
2018-03-25T14:48:26.959Z,16.00
2018-03-25T14:50:53.040Z,14.73
2018-03-25T14:53:19.203Z,15.40
2018-03-25T14:55:45.275Z,14.93
2018-03-25T14:58:11.408Z,12.60
2018-03-25T15:00:37.518Z,13.73
2018-03-25T15:03:03.706Z,15.87
2018-03-25T15:05:29.826Z,13.97
2018-03-25T15:07:55.976Z,14.97
2018-03-25T15:10:22.041Z,14.87
2018-03-25T15:12:48.449Z,17.83
2018-03-25T15:15:14.533Z,14.43
2018-03-25T15:17:40.789Z,10.77
2018-03-25T15:20:06.936Z,10.93
2018-03-25T15:22:33.005Z,8.83
2018-03-25T15:24:59.212Z,12.30
2018-03-25T15:27:25.472Z,10.17
2018-03-25T15:29:51.682Z,13.30
2018-03-25T15:32:17.987Z,13.77
2018-03-25T15:34:44.280Z,13.20
2018-03-25T15:37:10.351Z,14.57
2018-03-25T15:39:36.483Z,12.47
2018-03-25T15:42:02.582Z,13.77
2018-03-25T15:44:28.678Z,17.53
2018-03-25T15:46:54.784Z,12.77
2018-03-25T15:49:20.841Z,13.97
2018-03-25T15:51:47.176Z,15.20
2018-03-25T15:54:13.240Z,13.33
2018-03-25T15:56:39.412Z,13.20
2018-03-25T15:59:05.484Z,13.73
2018-03-25T16:01:31.547Z,14.40
2018-03-25T16:03:57.681Z,12.73
2018-03-25T16:06:23.869Z,13.33
2018-03-25T16:08:50.078Z,13.30
2018-03-25T16:11:16.238Z,12.10
2018-03-25T16:13:43.097Z,13.43
2018-03-25T16:16:09.491Z,13.13
2018-03-25T16:18:35.611Z,14.27
2018-03-25T16:21:01.698Z,12.80
2018-03-25T16:23:27.754Z,12.67
2018-03-25T16:25:54.036Z,12.70
2018-03-25T16:28:20.063Z,13.37
2018-03-25T16:30:46.147Z,12.87
2018-03-25T16:33:12.376Z,12.10
2018-03-25T16:35:38.443Z,11.67
2018-03-25T16:38:04.712Z,11.23
2018-03-25T16:40:30.850Z,11.23
2018-03-25T16:42:56.992Z,11.27
2018-03-25T16:45:24.019Z,10.97
2018-03-25T16:47:50.265Z,12.00
2018-03-25T16:50:16.303Z,11.63
2018-03-25T16:52:42.738Z,12.70
2018-03-25T16:55:08.814Z,14.50
2018-03-25T16:57:34.870Z,14.17
2018-03-25T17:00:01.170Z,16.10
2018-03-25T17:02:28.184Z,13.30
2018-03-25T17:04:54.550Z,12.87
2018-03-25T17:07:20.638Z,12.60
2018-03-25T17:09:47.103Z,13.20
2018-03-25T17:12:13.324Z,13.27
2018-03-25T17:14:39.690Z,11.40
2018-03-25T17:17:05.769Z,11.53
2018-03-25T17:19:32.111Z,10.57
2018-03-25T17:21:58.281Z,10.20
2018-03-25T17:24:25.337Z,11.97
2018-03-25T17:26:51.400Z,13.10
2018-03-25T17:29:17.612Z,12.10
2018-03-25T17:31:44.487Z,13.17
2018-03-25T17:34:10.778Z,11.63
2018-03-25T17:36:37.076Z,11.67
2018-03-25T17:39:03.196Z,12.10
2018-03-25T17:41:29.378Z,14.30
2018-03-25T17:43:55.396Z,13.97
2018-03-25T17:46:21.657Z,12.87
2018-03-25T17:48:47.879Z,13.33
2018-03-25T17:51:14.149Z,13.33
2018-03-25T17:53:40.442Z,12.10
2018-03-25T17:56:06.780Z,13.17
2018-03-25T17:58:33.038Z,13.93
2018-03-25T18:00:59.141Z,15.10
2018-03-25T18:03:25.237Z,13.37
2018-03-25T18:05:51.372Z,13.30
2018-03-25T18:08:17.472Z,13.20
2018-03-25T18:10:43.758Z,13.10
2018-03-25T18:13:09.848Z,14.57
2018-03-25T18:15:35.982Z,15.30
2018-03-25T18:18:02.204Z,14.93
2018-03-25T18:20:29.238Z,13.43
2018-03-25T18:22:55.918Z,13.57
2018-03-25T18:25:21.999Z,14.23
2018-03-25T18:27:48.105Z,13.97
2018-03-25T18:30:14.185Z,14.90
2018-03-25T18:32:40.613Z,15.07
2018-03-25T18:35:06.732Z,15.07
2018-03-25T18:37:33.172Z,14.53
2018-03-25T18:39:59.315Z,14.17
2018-03-25T18:42:25.428Z,14.70
2018-03-25T18:44:51.523Z,14.83
2018-03-25T18:47:17.588Z,13.67
2018-03-25T18:49:43.656Z,13.70
2018-03-25T18:52:10.123Z,13.47
2018-03-25T18:54:36.309Z,12.80
2018-03-25T18:57:02.395Z,14.00
2018-03-25T18:59:28.759Z,14.57
2018-03-25T19:01:54.879Z,14.20
2018-03-25T19:04:21.022Z,14.47
2018-03-25T19:06:47.200Z,14.50
2018-03-25T19:09:13.471Z,14.90
2018-03-25T19:11:39.584Z,15.20
2018-03-25T19:14:05.872Z,16.60
2018-03-25T19:16:32.466Z,15.13
2018-03-25T19:18:58.615Z,15.37
2018-03-25T19:21:25.368Z,15.47
2018-03-25T19:23:51.807Z,16.33
2018-03-25T19:26:17.934Z,16.23
2018-03-25T19:28:44.003Z,15.67
2018-03-25T19:31:10.346Z,17.00
2018-03-25T19:33:36.513Z,17.10
2018-03-25T19:36:02.602Z,16.60
2018-03-25T19:38:28.751Z,15.90
2018-03-25T19:40:55.981Z,16.33
2018-03-25T19:43:22.157Z,17.87
2018-03-25T19:45:48.269Z,16.93
2018-03-25T19:48:14.693Z,16.77
2018-03-25T19:50:40.766Z,16.00
2018-03-25T19:53:07.033Z,16.47
2018-03-25T19:55:33.172Z,17.43
2018-03-25T19:57:59.374Z,16.53
2018-03-25T20:00:28.420Z,17.60
2018-03-25T20:02:54.513Z,17.30
2018-03-25T20:05:20.628Z,17.30
2018-03-25T20:07:47.080Z,18.00
2018-03-25T20:10:13.136Z,17.87
2018-03-25T20:12:39.249Z,18.77
2018-03-25T20:15:06.415Z,17.73
2018-03-25T20:17:32.538Z,17.23
2018-03-25T20:19:58.630Z,17.30
2018-03-25T20:22:24.836Z,16.77
2018-03-25T20:24:50.989Z,17.50
2018-03-25T20:27:17.820Z,16.47
2018-03-25T20:29:44.007Z,17.73
2018-03-25T20:32:10.105Z,17.43
2018-03-25T20:34:36.482Z,17.60
2018-03-25T20:37:02.567Z,16.90
2018-03-25T20:39:28.749Z,17.43
2018-03-25T20:41:54.867Z,17.43
2018-03-25T20:44:20.949Z,16.80
2018-03-25T20:46:47.071Z,17.47
2018-03-25T20:49:13.361Z,19.20
2018-03-25T20:51:40.122Z,23.50
2018-03-25T20:54:06.409Z,23.80
2018-03-25T20:56:32.462Z,23.20
2018-03-25T20:58:58.624Z,23.13
2018-03-25T21:01:24.677Z,21.90
2018-03-25T21:03:50.794Z,21.03
2018-03-25T21:06:16.879Z,20.97
2018-03-25T21:08:43.077Z,18.60
2018-03-25T21:14:02.422Z,18.03
2018-03-25T21:16:28.502Z,18.67
2018-03-25T21:18:54.590Z,17.03
2018-03-25T21:21:20.673Z,15.67
2018-03-25T21:23:46.974Z,16.50
2018-03-25T21:26:13.050Z,18.07
2018-03-25T21:28:39.178Z,18.57
2018-03-25T21:31:05.362Z,19.60
2018-03-25T21:33:31.391Z,17.23
2018-03-25T21:35:57.435Z,15.87
2018-03-25T21:38:23.578Z,15.33
2018-03-25T21:40:49.642Z,17.60
2018-03-25T21:43:15.654Z,18.50
2018-03-25T21:45:41.797Z,15.93
2018-03-25T21:48:07.876Z,17.57
2018-03-25T21:50:34.042Z,19.27
2018-03-25T21:53:00.143Z,16.83
2018-03-25T21:55:26.218Z,17.10
2018-03-25T21:57:52.451Z,18.83
2018-03-25T22:00:18.473Z,16.93
2018-03-25T22:02:44.579Z,15.27
2018-03-25T22:05:10.635Z,16.83
2018-03-25T22:07:36.670Z,17.80
2018-03-25T22:10:02.764Z,18.27
2018-03-25T22:12:28.853Z,16.53
2018-03-25T22:14:54.960Z,17.93
2018-03-25T22:17:21.075Z,15.63
2018-03-25T22:19:47.127Z,16.50
2018-03-25T22:22:13.276Z,17.17
2018-03-25T22:24:39.352Z,17.50
2018-03-25T22:27:05.409Z,16.93
2018-03-25T22:29:31.579Z,16.10
2018-03-25T22:31:57.629Z,16.97
2018-03-25T22:34:23.958Z,16.10
2018-03-25T22:36:50.008Z,16.37
2018-03-25T22:39:16.106Z,14.47
2018-03-25T22:41:42.315Z,13.93
2018-03-25T22:44:08.423Z,16.67
2018-03-25T22:46:34.471Z,15.33
2018-03-25T22:49:00.635Z,17.80
2018-03-25T22:51:26.847Z,17.07
2018-03-25T22:53:52.983Z,16.43
2018-03-25T22:56:19.073Z,17.00
2018-03-25T22:58:45.127Z,16.00
2018-03-25T23:01:11.168Z,15.43
2018-03-25T23:03:37.265Z,16.63
2018-03-25T23:06:03.384Z,17.27
2018-03-25T23:08:29.461Z,16.57
2018-03-25T23:10:55.471Z,17.10
2018-03-25T23:13:21.536Z,16.20
2018-03-25T23:15:47.740Z,15.63
2018-03-25T23:18:13.769Z,16.20
2018-03-25T23:20:39.853Z,15.30
2018-03-25T23:23:05.900Z,13.57
2018-03-25T23:25:31.941Z,16.60
2018-03-25T23:27:58.023Z,17.00
2018-03-25T23:30:24.074Z,15.07
2018-03-25T23:32:50.142Z,16.07
2018-03-25T23:35:16.239Z,15.40
2018-03-25T23:37:42.259Z,16.20
2018-03-25T23:40:08.404Z,16.60
2018-03-25T23:42:34.506Z,15.60
2018-03-25T23:45:00.598Z,15.87
2018-03-25T23:47:26.667Z,15.30
2018-03-25T23:49:52.820Z,15.67
2018-03-25T23:52:18.894Z,14.80
2018-03-25T23:54:44.906Z,15.47
2018-03-25T23:57:10.996Z,17.07
2018-03-25T23:59:37.041Z,15.60
